EPGD/GDN METAR and TAF weather

Enter ICAO airport designator
Station Type Date Time Source
EPGD METAR 2021/05/12 02:30 UTC NOAA

EPGD 120230Z 13009KT CAVOK 14/07 Q1007


Station Type Date Time Source
EPGD Decoded METAR 2021/05/12 02:30 UTC NOAA

Gdansk-Rebiechowo, Poland (EPGD) 54-23N 018-28E 138M
May 11, 2021 - 10:30 PM EDT / 2021.05.12 0230 UTC
Wind: from the SE (130 degrees) at 10 MPH (9 KT):0
Visibility: greater than 7 mile(s):0
Temperature: 57 F (14 C)
Dew Point: 44 F (7 C)
Relative Humidity: 62%
Pressure (altimeter): 29.74 in. Hg (1007 hPa)
ob: EPGD 120230Z 13009KT CAVOK 14/07 Q1007
cycle: 2

Station Type Date Time Source
EPGD TAF 2021/05/11 18:37 UTC NOAA

TAF EPGD 111730Z 1118/1218 13010KT CAVOK
TEMPO 1209/1218 15015G25KT

Example: see airport list